EPSC/SZZ METAR and TAF weather

Enter ICAO airport designator
Station Type Date Time Source
EPSC METAR 2020/09/22 07:30 UTC NOAA

EPSC 220730Z 12005KT CAVOK 15/11 Q1013


Station Type Date Time Source
EPSC Decoded METAR 2020/09/22 07:30 UTC NOAA

Szczecin, Poland (EPSC) 53-24N 014-37E 3M
Sep 22, 2020 - 03:30 AM EDT / 2020.09.22 0730 UTC
Wind: from the ESE (120 degrees) at 6 MPH (5 KT):0
Visibility: greater than 7 mile(s):0
Temperature: 59 F (15 C)
Dew Point: 51 F (11 C)
Relative Humidity: 76%
Pressure (altimeter): 29.91 in. Hg (1013 hPa)
ob: EPSC 220730Z 12005KT CAVOK 15/11 Q1013
cycle: 7

Station Type Date Time Source
EPSC TAF 2020/09/22 06:33 UTC NOAA

TAF EPSC 220530Z 2206/2306 17008KT CAVOK

Example: see airport list